Larrabee, Iowa
Current Conditions -  °F | °C
As of 5:35 AM on Wednesday 26 Nov 2014 (Local Time) from KCKP Reporting Station
Light Snow Light Snow  
Wind Chill: 26°   Ceiling: 600
Heat Index: 31°   Visibility: 5mi
Dew Point: 31°   Wind: 5mph
Humidity: 99%   Direction: 70°ENE
Pressure: 29.86"   Gusts: NA
Location:  42.86°N, 95.55°W
Report Text: KCKP 261135Z AUTO 07004KT 5SM -SN OVC006 M01/M01 A2986 RMK AO2 T10071008
Loading
Personal Weather Stations






























Interactive Weather Map New forecast layout! Learn more

10-Day Weather Forecast

Advertisements
Track Severe Weather on mobile